Time;durP1;ratioP1;P1;durP2;ratioP2;P2;SDS_P1;SDS_P2;PMS_P1;PMS_P2;Temp;Humidity;BMP_temperature;BMP_pressure;BME280_temperature;BME280_humidity;BME280_pressure;Samples;Min_cycle;Max_cycle;Signal;HPM_P1;HPM_P2
2023/03/22 00:07:01;;;;;;;21.70;12.27;;;8.80;99.90;;;;;;20922345;28;20833;-77
2023/03/22 00:17:02;;;;;;;17.10;11.60;;;8.60;99.90;;;;;;20921240;28;20261;-75
2023/03/22 00:27:04;;;;;;;23.53;12.93;;;8.50;99.90;;;;;;20919231;28;20305;-76
2023/03/22 00:37:06;;;;;;;23.80;12.63;;;8.50;99.90;;;;;;20920099;28;20247;-75
2023/03/22 00:47:08;;;;;;;30.63;12.40;;;8.50;99.90;;;;;;20919319;28;20691;-76
2023/03/22 00:57:11;;;;;;;61.93;12.30;;;8.50;99.90;;;;;;20918992;28;20207;-69
2023/03/22 01:07:16;;;;;;;25.47;12.03;;;8.30;99.90;;;;;;20917675;28;20284;-70
2023/03/22 01:17:18;;;;;;;20.70;11.93;;;8.50;99.90;;;;;;20916246;28;20207;-70
2023/03/22 01:27:20;;;;;;;24.27;11.40;;;8.70;99.90;;;;;;20916179;28;20236;-69
2023/03/22 01:37:24;;;;;;;17.07;10.33;;;8.70;99.90;;;;;;20915548;28;20571;-70
2023/03/22 01:47:34;;;;;;;15.00;10.03;;;8.70;99.90;;;;;;20914552;28;20633;-70
2023/03/22 01:57:36;;;;;;;15.07;10.33;;;8.80;99.90;;;;;;20914554;28;20242;-70
2023/03/22 02:07:41;;;;;;;14.10;9.93;;;8.80;99.90;;;;;;20913498;28;20239;-71
2023/03/22 02:18:00;;;;;;;13.83;9.67;;;8.90;99.90;;;;;;20913309;28;20216;-73
2023/03/22 02:28:20;;;;;;;13.20;8.87;;;8.90;99.90;;;;;;20912478;28;20718;-74
2023/03/22 02:38:44;;;;;;;13.90;9.27;;;9.00;99.90;;;;;;20912281;28;20215;-75
2023/03/22 02:48:56;;;;;;;14.93;9.00;;;9.00;99.90;;;;;;20911108;28;20235;-76
2023/03/22 02:59:01;;;;;;;12.93;8.80;;;9.10;99.90;;;;;;20911265;28;20212;-75
2023/03/22 03:09:04;;;;;;;12.60;8.10;;;9.00;99.90;;;;;;20911268;28;20296;-69
2023/03/22 03:19:30;;;;;;;12.13;8.57;;;9.00;99.90;;;;;;20910605;28;20239;-73
2023/03/22 03:30:03;;;;;;;9.57;8.00;;;9.00;99.90;;;;;;20909746;28;20607;-71
2023/03/22 03:40:15;;;;;;;12.13;8.50;;;9.20;99.90;;;;;;20923283;28;20215;-70
2023/03/22 03:50:17;;;;;;;12.20;8.57;;;9.20;99.90;;;;;;20924027;28;20231;-69
2023/03/22 04:00:19;;;;;;;12.53;8.53;;;9.10;99.90;;;;;;20923142;28;20204;-70
2023/03/22 04:10:20;;;;;;;13.00;8.73;;;9.10;99.90;;;;;;20922574;28;20232;-71
2023/03/22 04:20:22;;;;;;;10.40;8.07;;;9.30;99.90;;;;;;20921621;28;20208;-70
2023/03/22 04:30:26;;;;;;;11.37;8.30;;;9.30;99.90;;;;;;20920544;28;20247;-76
2023/03/22 04:40:34;;;;;;;11.80;8.30;;;9.40;99.90;;;;;;20920255;28;20276;-75
2023/03/22 04:50:36;;;;;;;11.27;8.00;;;9.30;99.90;;;;;;20919181;28;20242;-73
2023/03/22 05:00:40;;;;;;;12.27;8.27;;;9.30;99.90;;;;;;20918648;28;20216;-75
2023/03/22 05:10:43;;;;;;;11.37;8.63;;;;;;;;;;20918010;28;20270;-73
2023/03/22 05:20:46;;;;;;;12.80;8.50;;;9.10;99.90;;;;;;20916929;28;20204;-72
2023/03/22 05:30:48;;;;;;;15.63;8.43;;;8.80;99.90;;;;;;20915636;28;20246;-71
2023/03/22 05:40:50;;;;;;;12.63;9.13;;;8.90;99.90;;;;;;20915312;28;20596;-67
2023/03/22 05:50:52;;;;;;;13.20;9.03;;;8.90;99.90;;;;;;20914426;28;20239;-70
2023/03/22 06:00:54;;;;;;;10.67;8.33;;;9.00;99.90;;;;;;20913517;28;20261;-71
2023/03/22 06:10:56;;;;;;;13.87;9.07;;;9.20;99.90;;;;;;20913462;28;20242;-70
2023/03/22 06:20:57;;;;;;;16.83;8.30;;;9.30;99.90;;;;;;20912316;28;20282;-74
2023/03/22 06:31:08;;;;;;;12.07;8.97;;;9.60;99.90;;;;;;20910970;28;20240;-74
2023/03/22 06:41:10;;;;;;;13.53;8.43;;;9.90;99.90;;;;;;20911146;28;20681;-69
2023/03/22 06:51:11;;;;;;;18.43;9.70;;;10.20;99.90;;;;;;20910559;28;20265;-71
2023/03/22 07:01:13;;;;;;;33.57;11.50;;;10.30;99.90;;;;;;20910250;28;20209;-73
2023/03/22 07:11:15;;;;;;;20.60;9.93;;;10.70;99.90;;;;;;20918181;28;20235;-75
2023/03/22 07:21:17;;;;;;;9.40;6.03;;;11.00;99.90;;;;;;20925268;28;20267;-75
2023/03/22 07:31:18;;;;;;;7.07;4.90;;;11.50;99.90;;;;;;20924282;28;20721;-70
2023/03/22 07:41:22;;;;;;;7.20;4.57;;;12.10;99.10;;;;;;20924014;28;20238;-70
2023/03/22 07:51:24;;;;;;;6.30;4.00;;;12.50;97.30;;;;;;20922735;28;20232;-69
2023/03/22 08:01:26;;;;;;;9.33;3.50;;;12.80;96.20;;;;;;20921519;28;20652;-74
2023/03/22 08:11:27;;;;;;;6.03;3.30;;;13.00;95.40;;;;;;20921492;28;20301;-74
2023/03/22 08:21:29;;;;;;;4.97;3.43;;;13.30;94.20;;;;;;20919962;28;20206;-77
2023/03/22 08:31:31;;;;;;;3.70;3.00;;;13.50;93.50;;;;;;20919654;28;20240;-73
2023/03/22 08:41:33;;;;;;;4.80;2.90;;;13.70;93.00;;;;;;20919211;28;20290;-77
2023/03/22 08:51:35;;;;;;;4.13;2.40;;;13.90;92.20;;;;;;20917803;28;20246;-76
2023/03/22 09:01:37;;;;;;;3.60;2.07;;;14.60;91.80;;;;;;20916953;28;20633;-73
2023/03/22 09:11:41;;;;;;;4.17;2.37;;;14.60;92.10;;;;;;20917337;28;20307;-68
2023/03/22 09:21:43;;;;;;;3.67;2.00;;;14.90;90.00;;;;;;20915593;28;20691;-68
2023/03/22 09:31:47;;;;;;;3.83;2.20;;;14.80;89.20;;;;;;20913557;28;20246;-68
2023/03/22 09:41:56;;;;;;;4.93;2.10;;;14.80;89.00;;;;;;20914588;28;20207;-74
2023/03/22 09:51:58;;;;;;;4.07;2.37;;;15.10;88.50;;;;;;20913590;28;20694;-69
2023/03/22 10:02:03;;;;;;;4.63;2.00;;;15.30;86.90;;;;;;20912024;28;20656;-68
2023/03/22 10:12:17;;;;;;;4.80;2.03;;;15.30;86.20;;;;;;20912014;28;20236;-69
2023/03/22 10:22:23;;;;;;;3.33;1.70;;;15.60;83.80;;;;;;20911625;28;20630;-68
2023/03/22 10:32:37;;;;;;;3.17;2.03;;;15.80;82.90;;;;;;20911438;28;20302;-73
2023/03/22 10:43:02;;;;;;;2.73;1.80;;;15.80;80.50;;;;;;20914013;28;20202;-70
2023/03/22 11:01:50;;;;;;;5.97;2.30;;;16.00;78.80;;;;;;20982725;28;20924;-68
2023/03/22 11:11:57;;;;;;;5.70;2.00;;;16.10;77.40;;;;;;20982217;28;20304;-76
2023/03/22 11:22:00;;;;;;;2.50;1.80;;;16.50;76.80;;;;;;20980789;28;20218;-72
2023/03/22 11:32:01;;;;;;;2.83;1.60;;;16.80;74.20;;;;;;20980640;28;20615;-70
2023/03/22 11:42:05;;;;;;;2.67;1.50;;;16.90;71.20;;;;;;20980394;28;20313;-75
2023/03/22 11:52:11;;;;;;;2.50;1.50;;;17.30;69.20;;;;;;20978584;28;20234;-76
2023/03/22 12:09:18;;;;;;;1.73;1.30;;;18.00;66.90;;;;;;20983040;28;20568;-71
2023/03/22 12:19:22;;;;;;;3.03;1.50;;;18.00;65.80;;;;;;20982072;28;20689;-77
2023/03/22 12:29:25;;;;;;;2.30;1.17;;;18.30;64.60;;;;;;20980438;28;20717;-75
2023/03/22 12:39:39;;;;;;;5.53;1.40;;;18.80;62.80;;;;;;20980662;28;20317;-76
2023/03/22 12:50:13;;;;;;;2.67;1.33;;;19.10;60.60;;;;;;20979210;28;20654;-77
2023/03/22 13:00:16;;;;;;;1.50;1.27;;;19.20;59.50;;;;;;20977906;28;20293;-70
2023/03/22 13:10:30;;;;;;;1.20;1.10;;;19.00;59.50;;;;;;20977999;28;20212;-70
2023/03/22 13:20:32;;;;;;;4.80;1.20;;;18.60;59.10;;;;;;20921451;28;20236;-74
2023/03/22 13:30:35;;;;;;;4.93;1.30;;;18.70;58.90;;;;;;20921784;28;20207;-70
2023/03/22 13:41:17;;;;;;;1.13;1.00;;;19.10;57.80;;;;;;20921641;28;20232;-73
2023/03/22 13:51:29;;;;;;;1.77;1.10;;;19.30;57.40;;;;;;20920684;28;20237;-72
2023/03/22 14:01:35;;;;;;;3.17;1.40;;;19.20;56.00;;;;;;20919654;28;20251;-72
2023/03/22 14:11:51;;;;;;;2.10;1.30;;;18.90;55.70;;;;;;20919527;28;20294;-71
2023/03/22 14:21:56;;;;;;;1.70;1.03;;;18.80;55.50;;;;;;20916551;28;20235;-71
2023/03/22 14:32:00;;;;;;;9.37;1.33;;;19.30;54.90;;;;;;20917334;28;20534;-73
2023/03/22 14:42:22;;;;;;;1.70;1.20;;;19.30;54.70;;;;;;20919291;28;20227;-75
2023/03/22 14:56:22;;;;;;;7.63;1.40;;;22.50;52.10;;;;;;20984113;28;20567;-73
2023/03/22 15:06:28;;;;;;;2.13;1.17;;;23.80;49.10;;;;;;20981934;28;20242;-75
2023/03/22 15:16:32;;;;;;;3.70;1.20;;;24.90;48.10;;;;;;20964892;28;20231;-75
2023/03/22 15:26:33;;;;;;;1.07;1.00;;;22.00;47.80;;;;;;20997967;28;20294;-74
2023/03/22 15:36:35;;;;;;;1.77;1.07;;;22.00;48.30;;;;;;20980607;28;20203;-75
2023/03/22 15:46:57;;;;;;;1.30;1.20;;;21.20;49.10;;;;;;20979294;28;20258;-73
2023/03/22 16:03:15;;;;;;;2.00;1.27;;;20.20;49.30;;;;;;20982968;28;20547;-74
2023/03/22 16:13:19;;;;;;;2.13;1.30;;;19.90;49.70;;;;;;20999273;28;20655;-73
2023/03/22 16:23:22;;;;;;;2.20;1.17;;;19.60;50.10;;;;;;20981513;28;20239;-72
2023/03/22 16:33:22;;;;;;;2.33;1.40;;;19.30;50.80;;;;;;20980414;28;20236;-74
2023/03/22 16:43:23;;;;;;;1.60;1.37;;;18.60;51.70;;;;;;20977891;28;20213;-73
2023/03/22 16:53:23;;;;;;;4.30;2.17;;;18.40;52.30;;;;;;20994634;28;20485;-75
2023/03/22 17:03:25;;;;;;;6.43;1.70;;;17.90;52.80;;;;;;20977306;28;20273;-75
2023/03/22 17:13:25;;;;;;;2.90;1.50;;;17.30;54.30;;;;;;20929805;28;20449;-75
2023/03/22 17:23:26;;;;;;;2.53;1.57;;;17.20;54.90;;;;;;20938542;28;20234;-76
2023/03/22 17:33:27;;;;;;;3.50;2.00;;;17.00;55.20;;;;;;20906177;28;20444;-78
2023/03/22 17:43:28;;;;;;;1.97;1.70;;;16.80;56.80;;;;;;20915384;28;20255;-78
2023/03/22 17:53:29;;;;;;;3.17;1.77;;;16.60;57.80;;;;;;20876738;28;20257;-78
2023/03/22 18:03:30;;;;;;;3.17;2.40;;;16.50;58.70;;;;;;20886455;28;20538;-77
2023/03/22 18:13:32;;;;;;;5.73;2.40;;;16.40;59.10;;;;;;20836656;28;20724;-77
2023/03/22 18:23:33;;;;;;;2.80;2.10;;;16.40;59.70;;;;;;20893605;28;20214;-75
2023/03/22 18:33:34;;;;;;;8.17;2.67;;;16.40;60.20;;;;;;20933260;28;20211;-73
2023/03/22 18:43:35;;;;;;;4.43;2.20;;;16.30;61.00;;;;;;20932866;28;20237;-74
2023/03/22 18:53:36;;;;;;;7.70;3.13;;;16.30;61.80;;;;;;20895333;28;20221;-82
2023/03/22 19:03:36;;;;;;;2.80;2.30;;;16.20;61.90;;;;;;20831252;28;20212;-84
2023/03/22 19:13:37;;;;;;;4.87;2.70;;;16.10;62.30;;;;;;20830085;28;20243;-81
2023/03/22 19:23:38;;;;;;;6.10;3.00;;;16.10;62.60;;;;;;20830007;28;20209;-81
2023/03/22 19:33:39;;;;;;;5.50;3.00;;;16.00;63.50;;;;;;20849125;28;20589;-79
2023/03/22 19:43:40;;;;;;;20.33;9.27;;;15.80;64.30;;;;;;20865424;28;20459;-79
2023/03/22 19:53:41;;;;;;;7.10;4.10;;;15.80;64.70;;;;;;20865250;28;20350;-78
2023/03/22 20:03:43;;;;;;;5.40;3.53;;;15.70;66.00;;;;;;20870250;28;20212;-79
2023/03/22 20:13:44;;;;;;;6.93;3.20;;;15.60;67.00;;;;;;20893256;28;20228;-81
2023/03/22 20:23:44;;;;;;;4.43;3.47;;;15.50;67.30;;;;;;20911342;28;20193;-83
2023/03/22 20:33:45;;;;;;;8.13;5.07;;;15.50;67.00;;;;;;20927245;28;20250;-81
2023/03/22 20:43:46;;;;;;;6.40;3.80;;;15.40;67.20;;;;;;20932058;28;20213;-80
2023/03/22 20:53:47;;;;;;;22.90;10.33;;;15.30;67.70;;;;;;20899186;28;20692;-78
2023/03/22 21:03:47;;;;;;;9.63;5.50;;;15.20;68.50;;;;;;20843608;28;20274;-76
2023/03/22 21:13:48;;;;;;;5.63;2.90;;;15.20;68.70;;;;;;20841424;28;20232;-80
2023/03/22 21:23:49;;;;;;;5.37;3.40;;;15.20;69.40;;;;;;20841638;28;20208;-80
2023/03/22 21:33:49;;;;;;;6.80;4.20;;;15.10;69.00;;;;;;20820406;28;20220;-77
2023/03/22 21:43:57;;;;;;;4.43;3.90;;;;;;;;;;20836700;28;20570;-76
2023/03/22 21:53:59;;;;;;;5.60;4.07;;;;;;;;;;20838676;28;20587;-84
2023/03/22 22:04:00;;;;;;;6.30;4.20;;;14.70;71.80;;;;;;20837822;28;20224;-84
2023/03/22 22:14:00;;;;;;;9.90;4.00;;;14.60;72.80;;;;;;20835904;28;20240;-82
2023/03/22 22:24:01;;;;;;;7.50;4.22;;;14.60;73.70;;;;;;20835301;28;20208;-79
2023/03/22 22:34:02;;;;;;;7.63;4.63;;;14.50;73.30;;;;;;20835486;28;20228;-77
2023/03/22 22:44:03;;;;;;;4.47;3.10;;;14.50;73.60;;;;;;20835361;28;20205;-79
2023/03/22 22:54:03;;;;;;;3.80;2.20;;;14.50;74.00;;;;;;20834155;28;20598;-75
2023/03/22 23:04:04;;;;;;;6.50;2.50;;;14.60;73.30;;;;;;20815022;28;20566;-77
2023/03/22 23:14:05;;;;;;;3.03;2.20;;;14.50;73.00;;;;;;20831172;28;20228;-77
2023/03/22 23:24:10;;;;;;;3.33;2.00;;;14.70;71.00;;;;;;20831912;28;20471;-76
2023/03/22 23:34:13;;;;;;;5.03;1.80;;;14.80;70.30;;;;;;20846690;28;20235;-77
2023/03/22 23:44:16;;;;;;;2.83;1.60;;;14.90;68.50;;;;;;20830572;28;20209;-78
2023/03/22 23:54:16;;;;;;;2.13;1.60;;;15.00;69.00;;;;;;20812316;28;20279;-76
